createdAt,value
2023-03-26T00:00:18.830Z,8.32
2023-03-26T00:02:48.412Z,8.65
2023-03-26T00:05:18.123Z,7.82
2023-03-26T00:07:47.742Z,9.15
2023-03-26T00:10:17.535Z,10.18
2023-03-26T00:12:47.270Z,9.48
2023-03-26T00:15:17.018Z,9.50
2023-03-26T00:17:47.922Z,9.63
2023-03-26T00:20:17.681Z,9.38
2023-03-26T00:22:47.325Z,7.45
2023-03-26T00:25:17.487Z,10.85
2023-03-26T00:27:47.148Z,9.40
2023-03-26T00:30:17.166Z,11.63
2023-03-26T00:32:53.333Z,9.35
2023-03-26T00:35:23.893Z,9.02
2023-03-26T00:37:54.983Z,8.50
2023-03-26T00:40:25.016Z,9.32
2023-03-26T00:42:54.604Z,8.68
2023-03-26T00:45:24.684Z,10.07
2023-03-26T00:47:54.536Z,9.02
2023-03-26T00:50:24.170Z,10.07
2023-03-26T00:52:57.302Z,10.95
2023-03-26T00:55:26.881Z,10.02
2023-03-26T00:57:57.054Z,10.23
2023-03-26T01:00:38.045Z,9.25
2023-03-26T01:03:08.884Z,10.82
2023-03-26T01:05:46.358Z,8.43
2023-03-26T01:08:27.153Z,10.25
2023-03-26T01:11:04.922Z,9.18
2023-03-26T01:13:40.111Z,11.43
2023-03-26T01:16:21.619Z,9.65
2023-03-26T01:18:51.568Z,9.73
2023-03-26T01:21:25.122Z,10.48
2023-03-26T01:24:03.431Z,9.05
2023-03-26T01:26:54.266Z,10.48
2023-03-26T01:29:39.112Z,8.48
2023-03-26T01:32:46.913Z,9.77
2023-03-26T01:35:28.687Z,8.10
2023-03-26T01:38:12.043Z,11.30
2023-03-26T01:41:11.163Z,9.35
2023-03-26T01:44:02.864Z,9.35
2023-03-26T01:46:37.771Z,9.93
2023-03-26T01:49:14.601Z,9.52
2023-03-26T01:51:45.052Z,11.50
2023-03-26T01:54:24.076Z,9.80
2023-03-26T01:57:12.790Z,9.63
2023-03-26T01:59:57.294Z,9.10
2023-03-26T02:02:41.751Z,8.27
2023-03-26T02:05:39.368Z,9.52
2023-03-26T02:08:36.790Z,8.93
2023-03-26T02:11:14.730Z,9.05
2023-03-26T02:13:48.029Z,8.55
2023-03-26T02:16:19.113Z,9.18
2023-03-26T02:18:52.932Z,9.65
2023-03-26T02:21:24.899Z,9.13
2023-03-26T02:24:04.434Z,8.80
2023-03-26T02:26:36.834Z,8.95
2023-03-26T02:29:06.478Z,8.52
2023-03-26T02:31:37.319Z,8.55
2023-03-26T02:34:07.032Z,8.88
2023-03-26T02:36:37.316Z,7.45
2023-03-26T02:39:07.347Z,8.07
2023-03-26T02:41:37.050Z,8.45
2023-03-26T02:44:09.537Z,8.57
2023-03-26T02:46:39.142Z,7.80
2023-03-26T02:49:09.734Z,7.03
2023-03-26T02:51:39.320Z,6.43
2023-03-26T02:54:08.897Z,6.95
2023-03-26T02:56:38.732Z,5.72
2023-03-26T02:59:08.319Z,5.68
2023-03-26T03:01:37.975Z,5.97
2023-03-26T03:04:09.811Z,6.07
2023-03-26T03:06:42.542Z,6.05
2023-03-26T03:09:12.165Z,6.47
2023-03-26T03:11:43.184Z,5.20
2023-03-26T03:14:12.839Z,5.82
2023-03-26T03:16:42.659Z,6.05
2023-03-26T03:19:12.714Z,6.05
2023-03-26T03:21:43.230Z,6.40
2023-03-26T03:24:15.310Z,6.22
2023-03-26T03:26:47.331Z,5.95
2023-03-26T03:29:16.920Z,5.63
2023-03-26T03:31:46.493Z,6.85
2023-03-26T03:34:16.061Z,6.10
2023-03-26T03:36:49.864Z,6.68
2023-03-26T03:39:19.506Z,6.65
2023-03-26T03:41:49.107Z,6.93
2023-03-26T03:44:18.771Z,7.15
2023-03-26T03:46:50.629Z,6.53
2023-03-26T03:49:20.253Z,6.60
2023-03-26T03:51:49.915Z,6.90
2023-03-26T03:54:19.512Z,7.80
2023-03-26T03:56:50.555Z,6.63
2023-03-26T03:59:20.153Z,6.40
2023-03-26T04:01:49.990Z,7.07
2023-03-26T04:04:20.283Z,6.80
2023-03-26T04:06:50.093Z,6.25
2023-03-26T04:09:19.696Z,5.13
2023-03-26T04:11:49.260Z,5.20
2023-03-26T04:14:18.881Z,5.63
2023-03-26T04:16:50.515Z,5.53
2023-03-26T04:19:20.120Z,6.25
2023-03-26T04:21:50.998Z,5.15
2023-03-26T04:24:21.205Z,6.32
2023-03-26T04:26:52.476Z,5.32
2023-03-26T04:29:25.967Z,5.05
2023-03-26T04:32:07.852Z,5.45
2023-03-26T04:34:37.877Z,4.97
2023-03-26T04:37:07.530Z,5.30
2023-03-26T04:39:37.763Z,3.95
2023-03-26T04:42:07.343Z,3.45
2023-03-26T04:44:36.893Z,4.00
2023-03-26T04:47:06.517Z,4.90
2023-03-26T04:49:36.065Z,3.80
2023-03-26T04:52:05.784Z,3.90
2023-03-26T04:54:35.329Z,3.40
2023-03-26T04:57:15.398Z,3.53
2023-03-26T04:59:45.074Z,3.75
2023-03-26T05:02:15.632Z,3.10
2023-03-26T05:04:47.304Z,3.92
2023-03-26T05:07:21.746Z,3.90
2023-03-26T05:09:51.395Z,3.13
2023-03-26T05:12:20.957Z,3.22
2023-03-26T05:14:50.630Z,3.22
2023-03-26T05:17:22.933Z,3.53
2023-03-26T05:19:53.591Z,3.25
2023-03-26T05:22:23.160Z,3.65
2023-03-26T05:24:53.004Z,3.15
2023-03-26T05:27:22.670Z,3.67
2023-03-26T05:29:52.406Z,2.90
2023-03-26T05:32:22.050Z,3.47
2023-03-26T05:34:52.573Z,4.43
2023-03-26T05:37:26.046Z,3.60
2023-03-26T05:39:59.228Z,3.17
2023-03-26T05:42:29.012Z,3.60
2023-03-26T05:44:58.564Z,3.83
2023-03-26T05:47:29.343Z,2.72
2023-03-26T05:49:58.981Z,3.40
2023-03-26T05:52:29.144Z,3.50
2023-03-26T05:54:58.800Z,3.58
2023-03-26T05:57:30.680Z,3.90
2023-03-26T06:00:00.276Z,3.22
2023-03-26T06:02:30.994Z,3.78
2023-03-26T06:05:00.623Z,3.45
2023-03-26T06:07:30.296Z,4.25
2023-03-26T06:10:00.096Z,3.85
2023-03-26T06:12:29.783Z,4.70
2023-03-26T06:14:59.356Z,3.42
2023-03-26T06:17:29.161Z,4.68
2023-03-26T06:19:58.791Z,3.78
2023-03-26T06:22:28.393Z,4.13
2023-03-26T06:24:57.993Z,3.97
2023-03-26T06:27:27.647Z,5.00
2023-03-26T06:29:57.310Z,4.25
2023-03-26T06:32:27.008Z,3.90
2023-03-26T06:34:56.663Z,3.80
2023-03-26T06:37:26.305Z,3.67
2023-03-26T06:39:55.906Z,4.05
2023-03-26T06:43:06.394Z,3.35
2023-03-26T06:45:15.280Z,3.42
2023-03-26T06:47:44.982Z,3.33
2023-03-26T06:50:14.692Z,3.70
2023-03-26T06:52:44.337Z,2.88
2023-03-26T06:55:14.196Z,2.90
2023-03-26T06:57:46.762Z,3.47
2023-03-26T07:00:16.967Z,3.40
2023-03-26T07:02:46.671Z,3.08
2023-03-26T07:05:17.183Z,3.03
2023-03-26T07:07:47.449Z,3.25
2023-03-26T07:10:17.530Z,2.78
2023-03-26T07:12:47.483Z,2.60
2023-03-26T07:15:17.261Z,2.30
2023-03-26T07:17:46.910Z,2.67
2023-03-26T07:20:16.492Z,2.88
2023-03-26T07:22:46.332Z,2.63
2023-03-26T07:25:17.139Z,2.65
2023-03-26T07:27:52.567Z,2.50
2023-03-26T07:30:33.415Z,2.22
2023-03-26T07:33:07.673Z,2.08
2023-03-26T07:36:15.378Z,2.15
2023-03-26T07:38:53.972Z,1.90
2023-03-26T07:41:37.787Z,2.13
2023-03-26T07:44:29.118Z,2.42
2023-03-26T07:47:02.114Z,2.05
2023-03-26T07:49:32.956Z,2.92
2023-03-26T07:52:03.004Z,2.10
2023-03-26T07:54:32.795Z,2.10
2023-03-26T07:57:18.565Z,2.38
2023-03-26T08:00:03.340Z,2.05
2023-03-26T08:02:59.229Z,2.33
2023-03-26T08:05:35.627Z,2.22
2023-03-26T08:08:07.145Z,2.17
2023-03-26T08:10:45.879Z,2.22
2023-03-26T08:14:00.686Z,2.20
2023-03-26T08:19:09.468Z,2.17
2023-03-26T08:21:44.671Z,2.78
2023-03-26T08:24:23.671Z,2.72
2023-03-26T08:27:06.875Z,3.10
2023-03-26T08:30:05.547Z,2.75
2023-03-26T08:32:35.428Z,2.83
2023-03-26T08:35:05.915Z,3.13
2023-03-26T08:37:35.541Z,3.70
2023-03-26T08:40:05.201Z,3.03
2023-03-26T08:42:58.747Z,3.65
2023-03-26T08:45:44.378Z,3.47
2023-03-26T08:48:37.043Z,4.50
2023-03-26T08:51:34.006Z,4.20
2023-03-26T08:54:19.607Z,4.05
2023-03-26T08:57:18.310Z,3.10
2023-03-26T09:00:14.516Z,3.13
2023-03-26T09:02:50.084Z,3.53
2023-03-26T09:05:37.727Z,3.45
2023-03-26T09:08:07.426Z,4.47
2023-03-26T09:10:40.027Z,4.55
2023-03-26T09:13:45.597Z,4.68
2023-03-26T09:16:39.446Z,5.18
2023-03-26T09:19:18.044Z,4.40
2023-03-26T09:22:12.056Z,4.57
2023-03-26T09:24:59.852Z,4.88
2023-03-26T09:28:22.201Z,4.68
2023-03-26T09:31:07.075Z,5.63
2023-03-26T09:33:45.714Z,5.03
2023-03-26T09:36:22.031Z,4.57
2023-03-26T09:39:12.477Z,4.38
2023-03-26T09:42:09.276Z,5.22
2023-03-26T09:45:10.544Z,5.32
2023-03-26T09:48:12.619Z,4.35
2023-03-26T09:51:07.653Z,4.05
2023-03-26T09:53:46.870Z,5.25
2023-03-26T09:56:28.294Z,3.63
2023-03-26T09:59:15.695Z,3.35
2023-03-26T10:02:18.790Z,4.30
2023-03-26T10:05:06.554Z,3.90
2023-03-26T10:08:08.717Z,4.53
2023-03-26T10:11:05.149Z,3.40
2023-03-26T10:14:01.051Z,3.08
2023-03-26T10:16:48.930Z,3.30
2023-03-26T10:19:44.716Z,3.42
2023-03-26T10:22:44.263Z,2.60
2023-03-26T10:25:32.492Z,3.42
2023-03-26T10:28:29.419Z,2.50
2023-03-26T10:31:07.482Z,3.10
2023-03-26T10:33:53.744Z,3.22
2023-03-26T10:36:31.162Z,2.30
2023-03-26T10:39:08.594Z,2.33
2023-03-26T10:41:55.637Z,2.78
2023-03-26T10:44:27.985Z,2.40
2023-03-26T10:47:10.054Z,2.38
2023-03-26T10:50:23.039Z,2.92
2023-03-26T10:53:13.943Z,2.13
2023-03-26T10:55:48.927Z,2.95
2023-03-26T10:58:48.398Z,3.63
2023-03-26T11:01:57.746Z,1.98
2023-03-26T11:04:39.567Z,2.35
2023-03-26T11:07:21.130Z,2.58
2023-03-26T11:10:11.253Z,2.30
2023-03-26T11:12:53.551Z,2.63
2023-03-26T11:15:54.828Z,2.42
2023-03-26T11:18:45.888Z,2.72
2023-03-26T11:21:32.833Z,2.60
2023-03-26T11:24:32.771Z,3.08
2023-03-26T11:27:20.879Z,1.95
2023-03-26T11:30:22.327Z,2.63
2023-03-26T11:32:56.464Z,3.35
2023-03-26T11:35:39.503Z,3.17
2023-03-26T11:38:13.581Z,2.47
2023-03-26T11:43:16.373Z,2.75
2023-03-26T11:45:50.079Z,2.22
2023-03-26T11:51:13.208Z,3.03
2023-03-26T11:53:48.610Z,2.42
2023-03-26T11:57:05.121Z,2.03
2023-03-26T12:00:17.343Z,2.30
2023-03-26T12:02:49.213Z,2.70
2023-03-26T12:05:26.485Z,2.00
2023-03-26T12:07:58.931Z,2.50
2023-03-26T12:10:41.548Z,2.08
2023-03-26T12:13:53.511Z,1.85
2023-03-26T12:16:24.391Z,2.65
2023-03-26T12:19:20.490Z,2.45
2023-03-26T12:21:56.029Z,1.90
2023-03-26T12:24:38.747Z,3.17
2023-03-26T12:27:23.318Z,2.20
2023-03-26T12:30:11.037Z,2.30
2023-03-26T12:32:47.048Z,1.75
2023-03-26T12:35:20.324Z,2.13
2023-03-26T12:37:50.331Z,1.63
2023-03-26T12:40:38.349Z,1.60
2023-03-26T12:44:53.052Z,2.53
2023-03-26T12:47:54.378Z,1.98
2023-03-26T12:49:28.148Z,2.28
2023-03-26T12:52:29.378Z,2.03
2023-03-26T12:55:15.439Z,1.98
2023-03-26T12:58:13.777Z,2.00
2023-03-26T13:00:53.019Z,2.13
2023-03-26T13:04:05.257Z,2.10
2023-03-26T13:07:12.684Z,2.17
2023-03-26T13:10:04.675Z,2.28
2023-03-26T13:13:04.447Z,1.70
2023-03-26T13:15:46.779Z,1.90
2023-03-26T13:18:33.053Z,2.05
2023-03-26T13:21:33.694Z,2.08
2023-03-26T13:24:09.343Z,2.80
2023-03-26T13:27:02.988Z,3.08
2023-03-26T13:29:58.038Z,2.17
2023-03-26T13:32:45.843Z,2.90
2023-03-26T13:35:38.048Z,2.70
2023-03-26T13:38:41.484Z,2.22
2023-03-26T13:41:28.879Z,2.35
2023-03-26T13:44:18.427Z,3.15
2023-03-26T13:46:57.254Z,2.50
2023-03-26T13:49:38.651Z,3.45
2023-03-26T13:52:36.831Z,2.63
2023-03-26T13:55:21.039Z,3.05
2023-03-26T13:58:13.554Z,3.53
2023-03-26T14:01:09.222Z,2.92
2023-03-26T14:03:57.966Z,3.70
2023-03-26T14:06:55.555Z,3.50
2023-03-26T14:09:38.770Z,3.75
2023-03-26T14:12:21.101Z,2.88
2023-03-26T14:15:02.804Z,2.67
2023-03-26T14:18:22.052Z,2.60
2023-03-26T14:21:04.225Z,2.95
2023-03-26T14:23:51.961Z,2.83
2023-03-26T14:26:28.026Z,2.88
2023-03-26T14:29:25.194Z,3.58
2023-03-26T14:32:12.805Z,3.85
2023-03-26T14:35:03.639Z,3.20
2023-03-26T14:38:00.271Z,3.22
2023-03-26T14:40:51.501Z,3.70
2023-03-26T14:43:27.112Z,3.53
2023-03-26T14:46:09.010Z,4.03
2023-03-26T14:48:59.621Z,4.38
2023-03-26T14:51:57.726Z,3.67
2023-03-26T14:54:30.674Z,3.90
2023-03-26T14:57:36.739Z,4.38
2023-03-26T15:00:17.145Z,3.75
2023-03-26T15:03:23.165Z,3.58
2023-03-26T15:05:58.667Z,5.60
2023-03-26T15:09:17.260Z,4.65
2023-03-26T15:12:15.636Z,4.53
2023-03-26T15:15:00.439Z,4.35
2023-03-26T15:17:32.672Z,4.35
2023-03-26T15:20:14.611Z,3.72
2023-03-26T15:23:20.497Z,4.35
2023-03-26T15:26:43.848Z,4.47
2023-03-26T15:29:25.469Z,4.72
2023-03-26T15:32:10.368Z,4.90
2023-03-26T15:34:52.195Z,3.83
2023-03-26T15:37:54.202Z,4.05
2023-03-26T15:41:19.100Z,4.07
2023-03-26T15:47:01.529Z,6.57
2023-03-26T15:50:03.482Z,5.63
2023-03-26T15:52:45.000Z,4.68
2023-03-26T15:55:20.609Z,5.45
2023-03-26T15:58:32.275Z,4.97
2023-03-26T16:01:07.792Z,6.28
2023-03-26T16:03:54.794Z,6.38
2023-03-26T16:06:32.492Z,5.10
2023-03-26T16:09:17.913Z,4.40
2023-03-26T16:11:58.693Z,5.35
2023-03-26T16:14:37.548Z,4.80
2023-03-26T16:17:14.507Z,5.63
2023-03-26T16:20:33.007Z,6.30
2023-03-26T16:23:06.144Z,5.00
2023-03-26T16:25:54.770Z,4.53
2023-03-26T16:28:30.079Z,5.05
2023-03-26T16:31:10.666Z,4.03
2023-03-26T16:34:21.254Z,6.38
2023-03-26T16:36:55.561Z,5.03
2023-03-26T16:39:45.812Z,4.68
2023-03-26T16:42:19.465Z,5.80
2023-03-26T16:47:45.039Z,5.82
2023-03-26T16:50:42.112Z,4.60
2023-03-26T16:53:25.736Z,5.18
2023-03-26T16:56:14.517Z,4.82
2023-03-26T16:58:53.025Z,5.03
2023-03-26T17:01:22.801Z,5.32
2023-03-26T17:03:52.444Z,4.95
2023-03-26T17:06:49.312Z,5.40
2023-03-26T17:09:37.610Z,5.22
2023-03-26T17:12:34.633Z,5.13
2023-03-26T17:15:23.105Z,5.40
2023-03-26T17:18:22.889Z,5.05
2023-03-26T17:21:04.946Z,5.72
2023-03-26T17:24:06.764Z,4.82
2023-03-26T17:27:06.352Z,6.05
2023-03-26T17:30:05.278Z,6.03
2023-03-26T17:33:02.110Z,5.20
2023-03-26T17:35:47.645Z,5.70
2023-03-26T17:38:20.083Z,5.57
2023-03-26T17:41:00.164Z,5.35
2023-03-26T17:43:48.644Z,5.78
2023-03-26T17:46:39.167Z,4.85
2023-03-26T17:49:14.361Z,4.72
2023-03-26T17:52:01.460Z,4.55
2023-03-26T17:54:37.183Z,4.97
2023-03-26T17:57:16.523Z,6.15
2023-03-26T17:59:48.443Z,5.25
2023-03-26T18:02:23.595Z,6.13
2023-03-26T18:04:57.660Z,5.82
2023-03-26T18:08:12.184Z,4.93
2023-03-26T18:10:59.893Z,5.53
2023-03-26T18:14:07.824Z,5.75
2023-03-26T18:16:50.886Z,6.00
2023-03-26T18:19:24.803Z,5.93
2023-03-26T18:21:58.306Z,5.45
2023-03-26T18:24:38.509Z,4.85
2023-03-26T18:27:12.888Z,6.13
2023-03-26T18:30:01.853Z,5.22
2023-03-26T18:32:34.901Z,5.30
2023-03-26T18:35:18.560Z,4.72
2023-03-26T18:37:50.695Z,4.15
2023-03-26T18:40:25.499Z,6.28
2023-03-26T18:42:58.842Z,5.15
2023-03-26T18:45:39.939Z,5.05
2023-03-26T18:48:29.793Z,6.45
2023-03-26T18:51:04.862Z,8.00
2023-03-26T18:53:49.345Z,5.05
2023-03-26T18:56:43.176Z,6.13
2023-03-26T18:59:36.706Z,5.53
2023-03-26T19:02:15.878Z,4.45
2023-03-26T19:04:47.337Z,5.15
2023-03-26T19:07:20.637Z,5.72
2023-03-26T19:09:51.616Z,5.00
2023-03-26T19:12:24.705Z,5.07
2023-03-26T19:15:05.616Z,5.97
2023-03-26T19:17:41.308Z,6.32
2023-03-26T19:20:24.209Z,6.70
2023-03-26T19:22:54.726Z,5.47
2023-03-26T19:25:48.982Z,6.55
2023-03-26T19:28:31.653Z,5.53
2023-03-26T19:31:09.692Z,5.75
2023-03-26T19:33:43.320Z,4.50
2023-03-26T19:38:57.254Z,6.82
2023-03-26T19:41:35.775Z,6.28
2023-03-26T19:44:18.682Z,4.88
2023-03-26T19:46:52.992Z,6.77
2023-03-26T19:49:35.457Z,5.40
2023-03-26T19:52:26.895Z,5.43
2023-03-26T19:55:28.721Z,5.57
2023-03-26T19:57:58.258Z,5.03
2023-03-26T20:00:27.842Z,6.00
2023-03-26T20:02:57.799Z,7.60
2023-03-26T20:05:30.380Z,6.30
2023-03-26T20:08:02.127Z,7.15
2023-03-26T20:10:31.715Z,6.30
2023-03-26T20:13:02.103Z,6.65
2023-03-26T20:15:35.722Z,6.25
2023-03-26T20:20:35.822Z,5.15
2023-03-26T20:23:05.450Z,4.93
2023-03-26T20:25:37.027Z,5.32
2023-03-26T20:28:07.379Z,6.03
2023-03-26T20:30:38.266Z,7.05
2023-03-26T20:33:12.671Z,8.55
2023-03-26T20:35:44.234Z,6.00
2023-03-26T20:38:13.909Z,5.00
2023-03-26T20:40:43.974Z,5.47
2023-03-26T20:43:15.830Z,6.20
2023-03-26T20:45:45.422Z,5.57
2023-03-26T20:48:15.185Z,5.68
2023-03-26T20:50:50.671Z,6.00
2023-03-26T20:53:21.824Z,8.48
2023-03-26T20:55:52.254Z,7.85
2023-03-26T20:58:31.190Z,6.72
2023-03-26T21:01:04.983Z,7.40
2023-03-26T21:03:35.141Z,5.75
2023-03-26T21:06:06.964Z,6.75
2023-03-26T21:08:37.024Z,6.03
2023-03-26T21:11:26.484Z,5.40
2023-03-26T21:14:24.908Z,5.18
2023-03-26T21:16:54.861Z,6.22
2023-03-26T21:19:24.838Z,5.60
2023-03-26T21:22:09.816Z,5.50
2023-03-26T21:24:47.186Z,6.47
2023-03-26T21:27:30.612Z,6.00
2023-03-26T21:30:01.493Z,6.18
2023-03-26T21:32:33.145Z,6.25
2023-03-26T21:35:04.999Z,7.28
2023-03-26T21:37:34.867Z,6.15
2023-03-26T21:40:14.496Z,5.65
2023-03-26T21:42:48.559Z,6.25
2023-03-26T21:45:19.697Z,6.55
2023-03-26T21:47:49.582Z,7.35
2023-03-26T21:50:24.918Z,6.18
2023-03-26T21:52:54.940Z,5.97
2023-03-26T21:55:26.345Z,7.03
2023-03-26T21:58:17.277Z,6.45
2023-03-26T22:01:01.503Z,7.82
2023-03-26T22:03:45.145Z,7.43
2023-03-26T22:06:44.501Z,6.60
2023-03-26T22:09:18.364Z,8.23
2023-03-26T22:11:48.291Z,7.57
2023-03-26T22:14:17.850Z,6.40
2023-03-26T22:16:47.529Z,6.50
2023-03-26T22:19:17.278Z,7.50
2023-03-26T22:21:46.994Z,7.03
2023-03-26T22:24:16.617Z,7.60
2023-03-26T22:26:46.286Z,8.85
2023-03-26T22:29:16.446Z,8.70
2023-03-26T22:31:46.674Z,7.55
2023-03-26T22:34:16.521Z,10.48
2023-03-26T22:36:46.394Z,9.70
2023-03-26T22:39:15.989Z,8.98
2023-03-26T22:41:45.657Z,8.82
2023-03-26T22:46:50.425Z,8.52
2023-03-26T22:49:20.395Z,9.50
2023-03-26T22:51:51.611Z,10.02
2023-03-26T22:54:21.367Z,9.38
2023-03-26T22:56:51.076Z,10.55
2023-03-26T22:59:20.735Z,9.85
2023-03-26T23:01:50.836Z,9.32
2023-03-26T23:04:31.710Z,10.20
2023-03-26T23:07:02.253Z,10.00
2023-03-26T23:09:31.855Z,10.38
2023-03-26T23:12:01.575Z,9.38
2023-03-26T23:14:33.855Z,10.85
2023-03-26T23:17:03.541Z,10.40
2023-03-26T23:19:35.516Z,10.90
2023-03-26T23:22:05.168Z,10.13
2023-03-26T23:24:34.726Z,10.23
2023-03-26T23:27:05.049Z,10.77
2023-03-26T23:29:35.080Z,11.10
2023-03-26T23:32:23.420Z,11.45
2023-03-26T23:34:54.374Z,11.25
2023-03-26T23:37:24.950Z,10.95
2023-03-26T23:39:55.178Z,11.18
2023-03-26T23:42:28.825Z,11.57
2023-03-26T23:44:59.730Z,11.05
2023-03-26T23:47:35.708Z,10.95
2023-03-26T23:50:07.002Z,12.73
2023-03-26T23:52:38.905Z,10.00
2023-03-26T23:55:09.541Z,9.77
2023-03-26T23:57:39.307Z,10.98
